Time;durP1;ratioP1;P1;durP2;ratioP2;P2;SDS_P1;SDS_P2;PMS_P1;PMS_P2;Temp;Humidity;BMP_temperature;BMP_pressure;BME280_temperature;BME280_humidity;BME280_pressure;Samples;Min_cycle;Max_cycle;Signal;HPM_P1;HPM_P2
2023/06/08 05:00:23;;;;;;;5.40;4.80;;;18.10;97.20;;;;;;1713873;28;20313;-68
2023/06/08 05:01:13;;;;;;;5.35;4.95;;;18.10;97.20;;;;;;1713940;28;20216;-68
2023/06/08 05:02:06;;;;;;;4.60;4.30;;;18.20;97.20;;;;;;1713849;28;20206;-68
2023/06/08 05:02:56;;;;;;;4.45;4.15;;;18.20;97.20;;;;;;1713962;28;20210;-68
2023/06/08 05:03:48;;;;;;;4.63;4.30;;;18.30;97.20;;;;;;1713899;28;20212;-68
2023/06/08 05:04:39;;;;;;;4.90;4.50;;;18.30;97.20;;;;;;1713922;28;20198;-68
2023/06/08 05:05:30;;;;;;;4.80;4.40;;;18.30;97.20;;;;;;1714248;28;20202;-68
2023/06/08 05:06:21;;;;;;;4.55;4.15;;;18.40;97.20;;;;;;1715233;28;20552;-68
2023/06/08 05:07:13;;;;;;;4.67;4.27;;;18.40;97.20;;;;;;1715001;28;20223;-68
2023/06/08 05:08:04;;;;;;;5.30;4.80;;;18.40;97.20;;;;;;1715188;28;20201;-68
2023/06/08 05:08:56;;;;;;;5.03;4.63;;;18.50;97.20;;;;;;1715210;28;20205;-68
2023/06/08 05:09:47;;;;;;;4.70;4.30;;;18.50;97.20;;;;;;1715227;28;20581;-68
2023/06/08 05:10:39;;;;;;;5.13;4.63;;;18.50;97.20;;;;;;1715220;28;20210;-68
2023/06/08 05:11:29;;;;;;;4.75;4.45;;;18.60;97.20;;;;;;1715199;28;20202;-68
2023/06/08 05:12:21;;;;;;;4.23;3.93;;;18.60;97.20;;;;;;1715162;28;20198;-68
2023/06/08 05:13:12;;;;;;;5.43;4.95;;;18.70;97.20;;;;;;1715250;28;20687;-68
2023/06/08 05:14:04;;;;;;;4.23;3.90;;;18.70;97.20;;;;;;1715144;28;20656;-68
2023/06/08 05:14:55;;;;;;;4.68;4.28;;;18.70;97.20;;;;;;1715194;28;20213;-68
2023/06/08 05:15:48;;;;;;;4.65;4.10;;;18.80;97.20;;;;;;1715178;28;20202;-68
2023/06/08 05:16:38;;;;;;;4.32;3.92;;;18.80;97.20;;;;;;1715125;28;20201;-68
2023/06/08 05:17:30;;;;;;;4.50;4.20;;;18.90;97.20;;;;;;1714531;28;20233;-68
2023/06/08 05:18:21;;;;;;;4.60;4.20;;;18.90;97.20;;;;;;1715043;28;20847;-68
2023/06/08 05:19:13;;;;;;;4.93;4.13;;;18.90;97.20;;;;;;1715248;28;20205;-68
2023/06/08 05:20:05;;;;;;;4.65;4.35;;;19.00;97.20;;;;;;1714997;28;20210;-68
2023/06/08 05:20:57;;;;;;;4.30;4.00;;;19.00;97.20;;;;;;1715071;28;20249;-68
2023/06/08 05:21:48;;;;;;;4.40;4.10;;;19.10;97.20;;;;;;1715096;28;20710;-68
2023/06/08 05:22:39;;;;;;;4.80;4.30;;;19.10;97.20;;;;;;1715128;28;20655;-68
2023/06/08 05:23:30;;;;;;;4.30;4.00;;;19.20;97.20;;;;;;1715194;28;20206;-68
2023/06/08 05:24:22;;;;;;;4.27;3.87;;;19.20;97.20;;;;;;1715158;28;20232;-68
2023/06/08 05:25:13;;;;;;;4.55;4.25;;;19.20;97.20;;;;;;1714830;28;20233;-68
2023/06/08 05:26:04;;;;;;;3.73;3.43;;;19.30;97.20;;;;;;1714864;28;20194;-68
2023/06/08 05:26:55;;;;;;;4.53;4.22;;;19.30;97.20;;;;;;1714632;28;20449;-68
2023/06/08 05:27:47;;;;;;;4.77;4.20;;;19.30;97.20;;;;;;1715097;28;20202;-68
2023/06/08 05:28:37;;;;;;;4.65;4.25;;;19.40;97.20;;;;;;1715022;28;20703;-68
2023/06/08 05:29:30;;;;;;;4.67;4.37;;;19.40;97.20;;;;;;1715199;28;20682;-68
2023/06/08 05:30:21;;;;;;;4.65;4.25;;;19.40;97.20;;;;;;1714869;28;20737;-68
2023/06/08 05:31:14;;;;;;;4.17;3.77;;;19.40;97.20;;;;;;1715112;28;20624;-68
2023/06/08 05:32:06;;;;;;;4.40;4.00;;;19.40;97.20;;;;;;1713876;28;20445;-68
2023/06/08 05:33:00;;;;;;;4.60;4.20;;;19.50;97.20;;;;;;1708371;28;20224;-68
2023/06/08 05:33:50;;;;;;;4.38;4.07;;;19.50;97.20;;;;;;1713802;28;20206;-68
2023/06/08 05:34:42;;;;;;;4.03;3.73;;;19.50;97.20;;;;;;1714657;28;20485;-68
2023/06/08 05:35:33;;;;;;;4.68;4.38;;;19.50;97.20;;;;;;1714686;28;20209;-68
2023/06/08 05:36:25;;;;;;;4.47;4.17;;;19.50;97.20;;;;;;1714815;28;20206;-71
2023/06/08 05:37:16;;;;;;;4.95;4.55;;;19.50;97.20;;;;;;1714588;28;20734;-71
2023/06/08 05:38:07;;;;;;;6.93;4.20;;;19.50;97.20;;;;;;1714922;28;20668;-71
2023/06/08 05:39:03;;;;;;;4.55;4.20;;;19.50;97.20;;;;;;1715033;28;20594;-71
2023/06/08 05:39:55;;;;;;;4.88;4.47;;;19.50;97.20;;;;;;1715063;28;20574;-71
2023/06/08 05:40:45;;;;;;;4.93;4.50;;;19.60;97.20;;;;;;1714942;28;20225;-71
2023/06/08 05:41:37;;;;;;;4.50;4.20;;;19.60;97.20;;;;;;1715117;28;20208;-70
2023/06/08 05:42:28;;;;;;;4.70;4.30;;;19.60;97.20;;;;;;1714952;28;20208;-70
2023/06/08 05:43:20;;;;;;;4.50;4.10;;;19.70;97.20;;;;;;1714995;28;20201;-70
2023/06/08 05:44:10;;;;;;;5.15;4.65;;;19.70;97.20;;;;;;1714969;28;20217;-71
2023/06/08 05:45:02;;;;;;;5.23;4.83;;;19.70;97.20;;;;;;1714613;28;20660;-71
2023/06/08 05:45:53;;;;;;;5.30;4.90;;;19.80;97.20;;;;;;1714979;28;20214;-70
2023/06/08 05:46:46;;;;;;;6.47;4.73;;;19.80;97.20;;;;;;1714892;28;20198;-71
2023/06/08 05:47:37;;;;;;;4.25;3.95;;;19.80;97.20;;;;;;1715000;28;20248;-70
2023/06/08 05:48:28;;;;;;;5.27;4.83;;;19.90;97.20;;;;;;1715009;28;20202;-70
2023/06/08 05:49:19;;;;;;;5.68;5.28;;;19.90;97.20;;;;;;1714930;28;20202;-71
2023/06/08 05:50:11;;;;;;;4.93;4.53;;;20.00;97.20;;;;;;1715084;28;20238;-70
2023/06/08 05:51:02;;;;;;;4.80;4.40;;;20.00;97.20;;;;;;1715016;28;20830;-71
2023/06/08 05:51:54;;;;;;;4.28;3.95;;;20.10;97.20;;;;;;1714960;28;20201;-71
2023/06/08 05:52:45;;;;;;;4.82;4.35;;;20.10;97.20;;;;;;1715037;28;20213;-71
2023/06/08 05:53:38;;;;;;;4.93;4.53;;;20.10;97.20;;;;;;1715163;28;20204;-71
2023/06/08 05:54:29;;;;;;;5.20;4.78;;;20.10;97.20;;;;;;1714997;28;20209;-70
2023/06/08 05:55:20;;;;;;;5.27;4.73;;;20.20;97.20;;;;;;1714735;28;20276;-71
2023/06/08 05:56:11;;;;;;;4.50;4.10;;;20.20;97.20;;;;;;1715044;28;20742;-71
2023/06/08 05:57:03;;;;;;;4.63;4.23;;;20.20;97.20;;;;;;1714651;28;20688;-71
2023/06/08 05:57:54;;;;;;;4.90;4.50;;;20.30;97.20;;;;;;1715010;28;20206;-71
2023/06/08 05:58:46;;;;;;;4.43;4.13;;;20.30;97.20;;;;;;1715007;28;20216;-71
2023/06/08 05:59:36;;;;;;;5.65;4.05;;;20.40;97.20;;;;;;1714964;28;20202;-71
2023/06/08 06:00:28;;;;;;;4.47;4.07;;;20.40;97.20;;;;;;1714901;28;20219;-71
2023/06/08 06:01:19;;;;;;;5.40;4.18;;;20.50;97.20;;;;;;1715025;28;20289;-70
2023/06/08 06:02:12;;;;;;;4.60;4.30;;;20.50;97.20;;;;;;1715020;28;20205;-71
2023/06/08 06:03:03;;;;;;;4.70;4.30;;;20.60;97.20;;;;;;1714844;28;20221;-71
2023/06/08 06:03:55;;;;;;;4.03;3.73;;;20.70;97.20;;;;;;1714855;28;20542;-71
2023/06/08 06:04:46;;;;;;;5.20;4.80;;;20.70;97.20;;;;;;1714848;28;20225;-71
2023/06/08 06:05:37;;;;;;;4.80;4.17;;;20.80;97.20;;;;;;1714737;28;20690;-71
2023/06/08 06:06:28;;;;;;;4.50;4.10;;;20.80;97.20;;;;;;1714884;28;20202;-71
2023/06/08 06:07:20;;;;;;;5.25;4.88;;;20.90;97.20;;;;;;1714585;28;20205;-71
2023/06/08 06:08:11;;;;;;;5.15;4.72;;;20.90;97.20;;;;;;1714764;28;20286;-70
2023/06/08 06:09:03;;;;;;;5.10;4.60;;;20.90;97.20;;;;;;1714872;28;20297;-71
2023/06/08 06:09:54;;;;;;;4.53;4.22;;;21.00;97.20;;;;;;1714962;28;20210;-71
2023/06/08 06:10:46;;;;;;;4.73;4.37;;;21.00;97.20;;;;;;1714726;28;20312;-70
2023/06/08 06:11:37;;;;;;;4.65;4.35;;;21.00;97.20;;;;;;1714844;28;20213;-71
2023/06/08 06:12:28;;;;;;;5.17;4.77;;;21.10;97.20;;;;;;1714724;28;20200;-71
2023/06/08 06:13:19;;;;;;;4.70;4.30;;;21.10;97.20;;;;;;1714783;28;20445;-71
2023/06/08 06:14:11;;;;;;;4.93;4.60;;;21.10;97.20;;;;;;1714936;28;20202;-71
2023/06/08 06:15:01;;;;;;;4.45;4.15;;;21.20;97.20;;;;;;1714489;28;20254;-71
2023/06/08 06:15:53;;;;;;;4.97;4.57;;;21.20;97.20;;;;;;1715116;28;20226;-70
2023/06/08 06:16:44;;;;;;;5.10;4.70;;;21.20;97.20;;;;;;1714901;28;20669;-71
2023/06/08 06:17:37;;;;;;;5.00;4.50;;;21.30;97.20;;;;;;1713712;28;20664;-71
2023/06/08 06:18:27;;;;;;;5.85;5.35;;;21.30;97.20;;;;;;1714769;28;20209;-71
2023/06/08 06:19:19;;;;;;;5.00;4.60;;;21.30;97.20;;;;;;1714882;28;20194;-70
2023/06/08 06:20:11;;;;;;;4.80;4.50;;;21.30;97.20;;;;;;1714788;28;20259;-70
2023/06/08 06:21:02;;;;;;;5.40;4.90;;;21.40;97.20;;;;;;1714866;28;20206;-71
2023/06/08 06:21:53;;;;;;;5.22;4.82;;;21.40;97.20;;;;;;1714897;28;20218;-71
2023/06/08 06:22:45;;;;;;;5.30;4.80;;;21.30;97.20;;;;;;1714803;28;20285;-71
2023/06/08 06:23:36;;;;;;;4.78;4.47;;;21.30;97.20;;;;;;1714871;28;20225;-71
2023/06/08 06:24:27;;;;;;;6.17;5.67;;;21.30;97.20;;;;;;1714720;28;20198;-71
2023/06/08 06:25:18;;;;;;;5.00;4.60;;;21.30;97.20;;;;;;1714616;28;20283;-71
2023/06/08 06:26:11;;;;;;;5.50;5.00;;;21.30;97.20;;;;;;1714747;28;20201;-71
2023/06/08 06:27:02;;;;;;;6.40;5.88;;;21.30;97.20;;;;;;1714500;28;20202;-71
2023/06/08 06:27:54;;;;;;;6.43;5.93;;;21.30;97.20;;;;;;1714827;28;20285;-71
2023/06/08 06:28:44;;;;;;;6.45;5.95;;;21.30;97.20;;;;;;1714747;28;20587;-71
2023/06/08 06:29:36;;;;;;;6.73;6.20;;;21.30;97.20;;;;;;1714830;28;20577;-71
2023/06/08 06:30:27;;;;;;;6.63;6.03;;;21.30;97.20;;;;;;1714640;28;20264;-71
2023/06/08 06:31:18;;;;;;;7.70;7.00;;;21.20;97.20;;;;;;1714830;28;20252;-71
2023/06/08 06:32:09;;;;;;;7.20;6.50;;;21.20;97.20;;;;;;1714927;28;20205;-71
2023/06/08 06:33:02;;;;;;;6.63;5.80;;;21.20;97.20;;;;;;1714825;28;20208;-71
2023/06/08 06:33:53;;;;;;;6.80;6.20;;;21.20;97.20;;;;;;1714793;28;20217;-71
2023/06/08 06:34:45;;;;;;;6.10;5.57;;;21.20;97.20;;;;;;1714749;28;20202;-71
2023/06/08 06:35:35;;;;;;;7.47;6.40;;;21.20;97.20;;;;;;1714547;28;20217;-71
2023/06/08 06:36:27;;;;;;;7.17;6.47;;;21.20;97.20;;;;;;1714719;28;20216;-71
2023/06/08 06:37:18;;;;;;;7.05;6.45;;;21.20;97.20;;;;;;1714428;28;20210;-71
2023/06/08 06:38:09;;;;;;;8.03;7.23;;;21.20;97.20;;;;;;1714723;28;20201;-71
2023/06/08 06:39:00;;;;;;;8.65;6.50;;;21.20;97.20;;;;;;1714621;28;20229;-71
2023/06/08 06:39:52;;;;;;;7.20;6.60;;;21.30;97.20;;;;;;1714686;28;20216;-71
2023/06/08 06:40:43;;;;;;;7.30;6.70;;;21.20;97.20;;;;;;1714556;28;20228;-71
2023/06/08 06:41:34;;;;;;;6.70;6.20;;;21.30;97.20;;;;;;1714736;28;20201;-71
2023/06/08 06:42:25;;;;;;;7.35;6.60;;;21.30;97.20;;;;;;1714576;28;20206;-71
2023/06/08 06:43:17;;;;;;;7.40;6.80;;;21.30;97.20;;;;;;1714690;28;20674;-71
2023/06/08 06:44:08;;;;;;;6.70;6.10;;;21.30;97.20;;;;;;1714686;28;20632;-71
2023/06/08 06:45:00;;;;;;;6.63;6.10;;;21.30;97.20;;;;;;1714571;28;20594;-71
2023/06/08 06:45:51;;;;;;;6.55;6.05;;;21.30;97.20;;;;;;1714156;28;20982;-71
2023/06/08 06:46:44;;;;;;;8.18;6.20;;;21.40;97.20;;;;;;1714578;28;20201;-71
2023/06/08 06:47:34;;;;;;;7.25;6.55;;;21.40;97.20;;;;;;1714254;28;20575;-71
2023/06/08 06:48:27;;;;;;;6.40;5.90;;;21.50;97.20;;;;;;1714628;28;20202;-71
2023/06/08 06:49:18;;;;;;;6.68;6.18;;;21.50;97.20;;;;;;1714611;28;20213;-71
2023/06/08 06:50:10;;;;;;;7.67;6.90;;;21.50;97.20;;;;;;1714695;28;20293;-71
2023/06/08 06:51:01;;;;;;;7.30;6.70;;;21.60;97.20;;;;;;1714514;28;20614;-71
2023/06/08 06:51:52;;;;;;;6.83;6.03;;;21.60;97.20;;;;;;1714563;28;20237;-71
2023/06/08 06:52:43;;;;;;;6.70;6.10;;;21.70;97.20;;;;;;1714586;28;20209;-71
2023/06/08 06:53:35;;;;;;;7.10;6.50;;;21.70;97.20;;;;;;1714687;28;20198;-69
2023/06/08 06:54:25;;;;;;;7.65;6.45;;;21.70;97.20;;;;;;1714652;28;20205;-68
2023/06/08 06:55:17;;;;;;;9.23;7.13;;;21.80;97.20;;;;;;1714518;28;20208;-68
2023/06/08 06:56:08;;;;;;;6.68;6.13;;;21.80;97.20;;;;;;1714606;28;20210;-68
2023/06/08 06:56:59;;;;;;;7.00;6.40;;;21.80;97.20;;;;;;1714243;28;20202;-68
2023/06/08 06:57:52;;;;;;;7.25;6.55;;;21.90;97.20;;;;;;1714569;28;20686;-68
2023/06/08 06:58:44;;;;;;;7.43;6.82;;;21.90;97.20;;;;;;1714419;28;20547;-68
2023/06/08 06:59:36;;;;;;;7.70;7.10;;;22.00;97.20;;;;;;1714485;28;20205;-68
2023/06/08 07:00:29;;;;;;;7.43;6.72;;;22.00;97.20;;;;;;1714459;28;20193;-68
2023/06/08 07:01:20;;;;;;;10.38;7.63;;;22.00;97.20;;;;;;1714508;28;20244;-68
2023/06/08 07:02:12;;;;;;;7.07;6.57;;;22.10;97.20;;;;;;1714463;28;20660;-68
2023/06/08 07:03:03;;;;;;;6.90;5.88;;;22.10;97.20;;;;;;1714442;28;20855;-69
2023/06/08 07:03:56;;;;;;;6.10;5.60;;;22.10;97.20;;;;;;1714503;28;20698;-68
2023/06/08 07:04:48;;;;;;;6.45;5.95;;;22.20;97.20;;;;;;1714412;28;20205;-69
2023/06/08 07:05:40;;;;;;;5.80;5.30;;;22.30;97.20;;;;;;1714174;28;20328;-69
2023/06/08 07:06:31;;;;;;;7.07;6.47;;;22.40;97.20;;;;;;1714509;28;20206;-68
2023/06/08 07:07:23;;;;;;;7.70;5.77;;;22.40;97.20;;;;;;1714224;28;20198;-68
2023/06/08 07:08:14;;;;;;;6.63;5.70;;;22.50;97.20;;;;;;1714428;28;20205;-71
2023/06/08 07:09:06;;;;;;;9.40;6.43;;;22.60;97.20;;;;;;1714536;28;20201;-71
2023/06/08 07:09:57;;;;;;;6.45;5.90;;;22.60;97.20;;;;;;1714455;28;20445;-68
2023/06/08 07:10:49;;;;;;;7.23;5.73;;;22.70;97.20;;;;;;1714416;28;20217;-68
2023/06/08 07:11:39;;;;;;;6.88;6.18;;;22.80;97.20;;;;;;1714447;28;20209;-69
2023/06/08 07:12:31;;;;;;;7.10;6.37;;;22.80;97.20;;;;;;1714456;28;20281;-68
2023/06/08 07:13:22;;;;;;;6.22;5.65;;;22.90;97.20;;;;;;1714428;28;20560;-70
2023/06/08 07:14:13;;;;;;;6.37;5.87;;;23.00;97.20;;;;;;1714514;28;20223;-70
2023/06/08 07:15:05;;;;;;;6.10;5.53;;;23.10;97.20;;;;;;1714222;28;20205;-70
2023/06/08 07:15:57;;;;;;;6.00;5.50;;;23.20;97.20;;;;;;1714362;28;20209;-70
2023/06/08 07:16:48;;;;;;;6.05;5.47;;;23.20;97.20;;;;;;1714302;28;20208;-70
2023/06/08 07:17:40;;;;;;;5.80;5.40;;;23.30;97.20;;;;;;1714440;28;20197;-70
2023/06/08 07:18:31;;;;;;;6.50;6.00;;;23.40;97.20;;;;;;1714398;28;20209;-71
2023/06/08 07:19:24;;;;;;;5.80;5.30;;;23.50;97.20;;;;;;1714418;28;20232;-70
2023/06/08 07:20:15;;;;;;;5.85;5.30;;;23.50;97.20;;;;;;1714357;28;20606;-70
2023/06/08 07:21:07;;;;;;;6.00;5.60;;;23.60;97.20;;;;;;1714369;28;20246;-70
2023/06/08 07:21:58;;;;;;;6.65;5.25;;;23.70;97.20;;;;;;1714358;28;20456;-70
2023/06/08 07:22:49;;;;;;;6.50;5.90;;;23.70;97.20;;;;;;1714407;28;20202;-70
2023/06/08 07:23:42;;;;;;;6.90;6.30;;;23.70;97.20;;;;;;1714394;28;20209;-70
2023/06/08 07:24:34;;;;;;;6.10;5.50;;;23.70;97.20;;;;;;1714421;28;20229;-70
2023/06/08 07:25:24;;;;;;;6.20;5.70;;;23.70;97.20;;;;;;1714037;28;20232;-70
2023/06/08 07:26:16;;;;;;;7.30;6.10;;;23.70;97.20;;;;;;1714263;28;20236;-70
2023/06/08 07:27:07;;;;;;;6.32;5.80;;;23.70;97.20;;;;;;1714085;28;20276;-70
2023/06/08 07:27:58;;;;;;;6.10;5.60;;;23.70;97.20;;;;;;1714341;28;20202;-70
2023/06/08 07:28:53;;;;;;;7.03;6.43;;;23.80;97.20;;;;;;1714331;28;20217;-70
2023/06/08 07:29:45;;;;;;;6.95;6.25;;;23.80;97.20;;;;;;1714363;28;20241;-70
2023/06/08 07:30:36;;;;;;;5.90;5.40;;;23.80;97.20;;;;;;1714180;28;20618;-70
2023/06/08 07:31:28;;;;;;;5.40;5.00;;;23.80;97.20;;;;;;1714324;28;20216;-70
2023/06/08 07:32:19;;;;;;;5.90;5.15;;;23.80;97.20;;;;;;1714370;28;20448;-70
2023/06/08 07:33:11;;;;;;;5.30;4.90;;;23.90;97.20;;;;;;1714359;28;20209;-70
2023/06/08 07:34:02;;;;;;;6.30;5.70;;;23.90;97.20;;;;;;1714403;28;20217;-70
2023/06/08 07:34:56;;;;;;;5.85;5.45;;;24.00;97.20;;;;;;1714361;28;20201;-70
2023/06/08 07:35:47;;;;;;;5.32;4.82;;;24.10;97.20;;;;;;1714041;28;20202;-70
2023/06/08 07:36:38;;;;;;;5.23;4.73;;;24.20;97.20;;;;;;1714336;28;20202;-70
2023/06/08 07:37:29;;;;;;;5.97;5.38;;;24.20;97.20;;;;;;1714160;28;20206;-70
2023/06/08 07:38:21;;;;;;;6.90;6.20;;;24.30;97.20;;;;;;1714295;28;20202;-70
2023/06/08 07:39:11;;;;;;;6.07;5.65;;;24.30;97.20;;;;;;1714232;28;20234;-71
2023/06/08 07:40:06;;;;;;;6.17;5.57;;;24.30;97.20;;;;;;1714217;28;20205;-70
2023/06/08 07:40:57;;;;;;;5.40;4.90;;;24.40;97.20;;;;;;1714164;28;20221;-70
2023/06/08 07:41:49;;;;;;;5.97;5.53;;;24.40;97.20;;;;;;1714334;28;20290;-70
2023/06/08 07:42:39;;;;;;;6.47;5.88;;;24.40;97.20;;;;;;1714367;28;20561;-71
2023/06/08 07:43:31;;;;;;;6.50;5.90;;;24.40;97.20;;;;;;1714217;28;20194;-70
2023/06/08 07:44:22;;;;;;;6.10;5.55;;;24.40;97.20;;;;;;1714279;28;20205;-70
2023/06/08 07:45:14;;;;;;;6.70;6.00;;;24.50;97.20;;;;;;1713989;28;20222;-70
2023/06/08 07:46:05;;;;;;;7.03;6.43;;;24.50;97.20;;;;;;1714268;28;20213;-70
2023/06/08 07:46:57;;;;;;;7.10;6.43;;;24.60;97.20;;;;;;1713930;28;20204;-70
2023/06/08 07:47:48;;;;;;;6.05;5.55;;;24.60;97.20;;;;;;1714326;28;20668;-70
2023/06/08 07:48:39;;;;;;;6.00;5.40;;;24.60;97.20;;;;;;1714178;28;20748;-70
2023/06/08 07:49:30;;;;;;;5.68;5.28;;;24.70;97.20;;;;;;1714355;28;20202;-71
2023/06/08 07:50:23;;;;;;;5.97;5.27;;;24.70;97.20;;;;;;1714226;28;20206;-70
2023/06/08 07:51:14;;;;;;;6.28;5.75;;;24.80;97.20;;;;;;1714281;28;20537;-70
2023/06/08 07:52:06;;;;;;;8.67;5.00;;;24.80;97.20;;;;;;1714188;28;20289;-70
2023/06/08 07:52:57;;;;;;;5.47;5.00;;;24.90;97.20;;;;;;1714206;28;20711;-70
2023/06/08 07:53:49;;;;;;;5.63;5.03;;;25.00;97.20;;;;;;1714342;28;20694;-71
2023/06/08 07:54:40;;;;;;;5.40;4.85;;;25.00;97.20;;;;;;1714249;28;20213;-71
2023/06/08 07:55:32;;;;;;;6.33;5.83;;;25.10;97.20;;;;;;1713967;28;20286;-70
2023/06/08 07:56:22;;;;;;;5.75;5.25;;;25.10;97.20;;;;;;1714183;28;20202;-70
2023/06/08 07:57:14;;;;;;;5.70;5.20;;;25.10;97.20;;;;;;1714050;28;20198;-70
2023/06/08 07:58:05;;;;;;;7.10;5.18;;;25.20;97.20;;;;;;1714179;28;20628;-70
2023/06/08 07:58:57;;;;;;;7.10;5.60;;;25.20;97.20;;;;;;1714236;28;20659;-70
2023/06/08 07:59:47;;;;;;;5.82;5.32;;;25.30;97.20;;;;;;1714251;28;20235;-71
2023/06/08 08:00:40;;;;;;;5.73;5.13;;;25.30;97.20;;;;;;1714141;28;20225;-70
2023/06/08 08:01:31;;;;;;;6.13;5.63;;;25.40;97.20;;;;;;1714160;28;20206;-71
2023/06/08 08:02:22;;;;;;;6.70;5.17;;;25.40;97.20;;;;;;1714114;28;20712;-71
2023/06/08 08:03:13;;;;;;;5.53;5.10;;;25.40;97.20;;;;;;1714239;28;20217;-71
2023/06/08 08:04:05;;;;;;;4.60;4.20;;;25.50;97.20;;;;;;1714159;28;20765;-70
2023/06/08 08:04:56;;;;;;;4.77;4.37;;;25.50;97.20;;;;;;1714113;28;20201;-71
2023/06/08 08:05:49;;;;;;;4.90;4.50;;;25.60;97.20;;;;;;1713860;28;20445;-70
2023/06/08 08:06:40;;;;;;;5.05;4.65;;;25.60;97.20;;;;;;1714149;28;20230;-71
2023/06/08 08:07:32;;;;;;;5.10;4.47;;;25.70;97.20;;;;;;1714069;28;20202;-70
2023/06/08 08:08:22;;;;;;;5.33;4.83;;;25.70;97.20;;;;;;1714040;28;20668;-71
2023/06/08 08:09:14;;;;;;;4.50;4.10;;;25.80;97.20;;;;;;1714124;28;21015;-71
2023/06/08 08:10:06;;;;;;;5.30;4.87;;;25.80;97.20;;;;;;1714103;28;20212;-70
2023/06/08 08:10:58;;;;;;;4.70;4.30;;;25.80;97.20;;;;;;1714005;28;20545;-71
2023/06/08 08:11:48;;;;;;;4.60;4.17;;;25.80;97.20;;;;;;1714116;28;20202;-70
2023/06/08 08:12:42;;;;;;;4.40;4.00;;;25.80;97.20;;;;;;1714147;28;20940;-71
2023/06/08 08:13:33;;;;;;;4.40;4.00;;;25.80;97.20;;;;;;1714107;28;20202;-70
2023/06/08 08:14:25;;;;;;;4.13;3.78;;;25.90;97.20;;;;;;1714028;28;20296;-70
2023/06/08 08:15:16;;;;;;;4.05;3.75;;;25.90;97.20;;;;;;1713953;28;20696;-70
2023/06/08 08:16:08;;;;;;;5.00;4.13;;;25.90;97.20;;;;;;1714040;28;20689;-71
2023/06/08 08:16:58;;;;;;;4.67;4.00;;;26.00;97.20;;;;;;1713815;28;20240;-71
2023/06/08 08:17:50;;;;;;;4.23;3.93;;;26.00;97.20;;;;;;1714090;28;20449;-70
2023/06/08 08:18:41;;;;;;;4.32;3.92;;;25.90;97.20;;;;;;1714025;28;20433;-70
2023/06/08 08:19:32;;;;;;;4.60;4.23;;;26.00;97.20;;;;;;1714200;28;20198;-71
2023/06/08 08:20:23;;;;;;;5.57;4.18;;;25.90;97.20;;;;;;1714006;28;20608;-71
2023/06/08 08:21:16;;;;;;;4.30;4.00;;;26.00;97.20;;;;;;1714100;28;20598;-71
2023/06/08 08:22:07;;;;;;;4.40;3.80;;;26.00;97.20;;;;;;1713974;28;20214;-71
2023/06/08 08:22:59;;;;;;;4.93;3.90;;;26.00;97.20;;;;;;1714024;28;20445;-71
2023/06/08 08:23:49;;;;;;;3.87;3.63;;;26.00;97.20;;;;;;1713999;28;20638;-71
2023/06/08 08:24:41;;;;;;;4.60;4.20;;;26.00;97.20;;;;;;1714010;28;20434;-70
2023/06/08 08:25:32;;;;;;;4.57;4.18;;;25.90;97.20;;;;;;1713712;28;20250;-71
2023/06/08 08:26:24;;;;;;;5.43;4.93;;;25.90;97.20;;;;;;1713981;28;20197;-71
2023/06/08 08:27:14;;;;;;;4.90;4.45;;;25.90;97.20;;;;;;1713814;28;20205;-71
2023/06/08 08:28:06;;;;;;;5.17;4.73;;;25.80;97.20;;;;;;1713953;28;20198;-70
2023/06/08 08:28:57;;;;;;;4.80;3.72;;;25.80;97.20;;;;;;1714040;28;20233;-71
2023/06/08 08:29:49;;;;;;;5.17;4.13;;;25.80;97.20;;;;;;1714064;28;20206;-71
2023/06/08 08:30:39;;;;;;;4.93;4.20;;;25.80;97.20;;;;;;1713851;28;20256;-71
2023/06/08 08:31:31;;;;;;;4.70;3.87;;;25.80;97.20;;;;;;1713973;28;20197;-70
2023/06/08 08:32:23;;;;;;;3.90;3.60;;;25.80;97.20;;;;;;1707234;29;20203;-71
2023/06/08 08:33:14;;;;;;;5.03;3.97;;;25.90;97.20;;;;;;1707371;29;20217;-70
2023/06/08 08:34:05;;;;;;;5.07;4.03;;;26.00;97.20;;;;;;1707437;29;20498;-71
2023/06/08 08:34:57;;;;;;;4.63;4.23;;;26.10;97.20;;;;;;1707379;29;20446;-71
2023/06/08 08:35:48;;;;;;;4.77;4.20;;;26.20;97.20;;;;;;1711205;28;20201;-71
2023/06/08 08:36:41;;;;;;;5.30;4.03;;;26.30;97.20;;;;;;1713968;28;20441;-70
2023/06/08 08:37:32;;;;;;;4.47;4.07;;;26.40;97.20;;;;;;1713769;28;20441;-71
2023/06/08 08:38:24;;;;;;;5.07;4.67;;;26.50;97.20;;;;;;1713828;28;20536;-70
2023/06/08 08:39:15;;;;;;;4.97;4.57;;;26.60;97.20;;;;;;1714017;28;20453;-71
2023/06/08 08:40:09;;;;;;;6.63;4.70;;;26.70;97.20;;;;;;1713852;28;20528;-70
2023/06/08 08:41:04;;;;;;;5.27;4.77;;;26.90;97.20;;;;;;1713657;28;20476;-70
2023/06/08 08:42:01;;;;;;;5.40;4.93;;;27.00;97.20;;;;;;1714067;28;20457;-71
2023/06/08 08:43:00;;;;;;;4.87;4.40;;;27.10;97.20;;;;;;1714037;28;20763;-71
2023/06/08 08:43:58;;;;;;;5.20;4.40;;;27.20;97.20;;;;;;1713956;28;20452;-71
2023/06/08 08:44:53;;;;;;;5.45;4.95;;;27.30;97.20;;;;;;1713998;28;20455;-71
2023/06/08 08:45:46;;;;;;;4.80;4.40;;;27.40;97.20;;;;;;1713731;28;20257;-71
2023/06/08 08:46:42;;;;;;;5.10;4.67;;;27.40;97.20;;;;;;1713897;28;20441;-71
2023/06/08 08:47:35;;;;;;;9.53;4.60;;;27.50;97.20;;;;;;1713720;28;20790;-71
2023/06/08 08:48:29;;;;;;;4.73;4.43;;;27.60;97.20;;;;;;1713869;28;20444;-71
2023/06/08 08:49:22;;;;;;;4.70;4.40;;;27.70;97.20;;;;;;1713876;28;20460;-71
2023/06/08 08:50:16;;;;;;;4.50;4.20;;;27.70;97.20;;;;;;1713904;28;20485;-71
2023/06/08 08:51:12;;;;;;;4.90;4.50;;;27.80;97.20;;;;;;1713939;28;20445;-71
2023/06/08 08:52:08;;;;;;;5.53;4.60;;;27.90;97.20;;;;;;1713953;28;20924;-71
2023/06/08 08:53:00;;;;;;;4.67;4.27;;;28.00;97.20;;;;;;1714064;28;20571;-71
2023/06/08 08:53:51;;;;;;;4.80;4.40;;;28.00;97.20;;;;;;1713899;28;20449;-71
2023/06/08 08:54:43;;;;;;;5.30;4.80;;;28.00;97.20;;;;;;1714026;28;21019;-71
2023/06/08 08:55:34;;;;;;;5.30;4.83;;;28.10;97.20;;;;;;1713712;28;20472;-71
2023/06/08 08:56:28;;;;;;;5.40;4.90;;;28.10;97.20;;;;;;1713971;28;20441;-71
2023/06/08 08:57:19;;;;;;;5.63;4.93;;;28.20;97.20;;;;;;1713723;28;20605;-71
2023/06/08 08:58:11;;;;;;;5.33;4.80;;;28.20;97.20;;;;;;1713872;28;20449;-71
2023/06/08 08:59:03;;;;;;;5.17;4.77;;;28.20;97.20;;;;;;1713896;28;20445;-71
2023/06/08 08:59:55;;;;;;;4.57;4.27;;;28.30;97.20;;;;;;1714093;28;20958;-71
2023/06/08 09:00:48;;;;;;;5.27;4.83;;;28.30;97.20;;;;;;1713961;28;20500;-71
2023/06/08 09:01:41;;;;;;;5.40;5.00;;;28.40;97.20;;;;;;1713968;28;20445;-71
2023/06/08 09:02:35;;;;;;;5.37;4.97;;;28.40;97.20;;;;;;1713992;28;20456;-71
2023/06/08 09:03:27;;;;;;;8.53;5.03;;;28.40;97.20;;;;;;1713871;28;20445;-70
2023/06/08 09:04:17;;;;;;;4.93;4.63;;;28.50;97.20;;;;;;1714018;28;20437;-71
2023/06/08 09:05:10;;;;;;;4.93;4.53;;;28.50;97.20;;;;;;1713925;28;20463;-71
2023/06/08 09:06:01;;;;;;;5.03;4.53;;;28.50;97.20;;;;;;1713543;28;20210;-71
2023/06/08 09:06:52;;;;;;;4.90;4.50;;;28.50;97.20;;;;;;1713738;28;20544;-71
2023/06/08 09:07:45;;;;;;;5.03;4.63;;;28.50;97.20;;;;;;1713809;28;20210;-71
2023/06/08 09:08:37;;;;;;;5.10;4.70;;;28.50;97.20;;;;;;1713824;28;20453;-71
2023/06/08 09:09:27;;;;;;;6.20;5.00;;;28.50;97.20;;;;;;1713921;28;20441;-71
2023/06/08 09:10:21;;;;;;;4.50;4.10;;;28.50;97.20;;;;;;1713792;28;20935;-71
2023/06/08 09:11:12;;;;;;;6.30;4.83;;;28.60;97.20;;;;;;1713933;28;20348;-71
2023/06/08 09:12:05;;;;;;;5.10;4.70;;;28.70;97.20;;;;;;1713900;28;20504;-71
2023/06/08 09:12:56;;;;;;;4.47;4.07;;;28.70;97.20;;;;;;1713888;28;20217;-71
2023/06/08 09:13:48;;;;;;;5.03;4.47;;;28.80;97.20;;;;;;1713901;28;20499;-71
2023/06/08 09:14:56;;;;;;;4.83;4.40;;;28.80;97.20;;;;;;1713893;28;20955;-71
2023/06/08 09:15:48;;;;;;;5.00;4.50;;;28.90;97.20;;;;;;1713619;28;20449;-71
2023/06/08 09:16:42;;;;;;;5.33;4.93;;;28.90;97.20;;;;;;1713839;28;20445;-70
2023/06/08 09:17:38;;;;;;;5.73;5.13;;;29.00;97.20;;;;;;1713707;28;20831;-71
2023/06/08 09:18:28;;;;;;;6.10;5.30;;;29.00;97.20;;;;;;1713806;28;20476;-71
2023/06/08 09:19:22;;;;;;;5.80;5.27;;;29.10;97.20;;;;;;1714043;28;20464;-71
2023/06/08 09:20:13;;;;;;;5.40;5.00;;;29.20;97.20;;;;;;1713763;28;20202;-70
2023/06/08 09:21:21;;;;;;;6.40;4.90;;;29.20;97.20;;;;;;1713863;28;20453;-71
2023/06/08 09:22:28;;;;;;;5.63;5.10;;;29.30;97.20;;;;;;1713824;28;20360;-71
2023/06/08 09:23:24;;;;;;;5.90;5.50;;;29.30;97.20;;;;;;1713982;28;20852;-71
2023/06/08 09:24:16;;;;;;;6.90;5.37;;;29.40;97.20;;;;;;1714040;28;20453;-71
2023/06/08 09:25:09;;;;;;;6.50;6.00;;;29.40;97.20;;;;;;1713809;28;20453;-71
2023/06/08 09:26:00;;;;;;;5.90;5.40;;;29.40;97.20;;;;;;1713923;28;20520;-71
2023/06/08 09:26:56;;;;;;;5.53;4.97;;;29.40;97.20;;;;;;1713591;28;20445;-71
2023/06/08 09:27:47;;;;;;;5.13;4.73;;;29.40;97.20;;;;;;1713610;28;20531;-71
2023/06/08 09:28:39;;;;;;;5.93;5.47;;;29.40;97.20;;;;;;1713830;28;20931;-71
2023/06/08 09:29:34;;;;;;;4.93;4.57;;;29.40;97.20;;;;;;1713818;28;20442;-71
2023/06/08 09:30:26;;;;;;;5.67;5.13;;;29.50;97.20;;;;;;1713656;28;20445;-71